Time;durP1;ratioP1;P1;durP2;ratioP2;P2;SDS_P1;SDS_P2;PMS_P1;PMS_P2;Temp;Humidity;BMP_temperature;BMP_pressure;BME280_temperature;BME280_humidity;BME280_pressure;Samples;Min_cycle;Max_cycle;Signal;HPM_P1;HPM_P2
2022/09/08 00:00:02;;;;;;;4.70;1.80;;;;;;;;;;110662;1252;33050;-45
2022/09/08 00:02:53;;;;;;;4.20;1.80;;;;;;;;;;110660;1250;33094;-44
2022/09/08 00:05:26;;;;;;;3.90;1.90;;;;;;;;;;110698;1251;32740;-44
2022/09/08 00:07:59;;;;;;;3.80;1.60;;;;;;;;;;110675;1248;33196;-45
2022/09/08 00:10:32;;;;;;;3.00;1.60;;;;;;;;;;110690;1245;33141;-44
2022/09/08 00:13:03;;;;;;;3.60;1.40;;;;;;;;;;110659;1244;33036;-42
2022/09/08 00:15:34;;;;;;;4.30;1.80;;;;;;;;;;110658;1244;33064;-41
2022/09/08 00:18:07;;;;;;;4.20;1.70;;;;;;;;;;110641;1248;33109;-41
2022/09/08 00:20:37;;;;;;;4.10;1.70;;;;;;;;;;110680;1246;33015;-43
2022/09/08 00:23:08;;;;;;;3.90;1.80;;;;;;;;;;110675;1246;32878;-41
2022/09/08 00:25:38;;;;;;;4.20;1.90;;;;;;;;;;110657;1252;33169;-41
2022/09/08 00:28:09;;;;;;;3.60;1.50;;;;;;;;;;110665;1252;32693;-43
2022/09/08 00:30:40;;;;;;;3.50;1.50;;;;;;;;;;110693;1247;33029;-42
2022/09/08 00:33:11;;;;;;;4.00;1.50;;;;;;;;;;110669;1245;32750;-44
2022/09/08 00:35:45;;;;;;;3.60;1.60;;;;;;;;;;110697;1247;33151;-42
2022/09/08 00:38:15;;;;;;;4.00;1.70;;;;;;;;;;110703;1252;33152;-41
2022/09/08 00:40:49;;;;;;;3.80;1.90;;;;;;;;;;110685;1252;32910;-44
2022/09/08 00:43:35;;;;;;;3.50;1.70;;;;;;;;;;110673;1247;32811;-42
2022/09/08 00:46:22;;;;;;;4.20;1.50;;;;;;;;;;110693;1244;32977;-42
2022/09/08 00:48:59;;;;;;;4.30;1.70;;;;;;;;;;110658;1244;33257;-44
2022/09/08 00:51:32;;;;;;;4.10;1.70;;;;;;;;;;110709;1245;34685;-43
2022/09/08 00:54:03;;;;;;;3.70;1.70;;;;;;;;;;110704;1252;33068;-42
2022/09/08 00:56:34;;;;;;;4.20;1.60;;;;;;;;;;110699;1244;33422;-42
2022/09/08 00:59:05;;;;;;;4.80;1.70;;;;;;;;;;110653;1251;33266;-45
2022/09/08 01:01:36;;;;;;;4.40;1.90;;;;;;;;;;110664;1244;32703;-41
2022/09/08 01:04:07;;;;;;;3.80;1.70;;;;;;;;;;110658;1252;33385;-42
2022/09/08 01:12:46;;;;;;;3.70;1.50;;;;;;;;;;110683;1245;33198;-43
2022/09/08 01:15:22;;;;;;;3.50;1.70;;;;;;;;;;110680;1247;33145;-41
2022/09/08 01:17:55;;;;;;;4.00;1.60;;;;;;;;;;110678;1244;33075;-44
2022/09/08 01:20:34;;;;;;;3.60;1.50;;;;;;;;;;110691;1253;33199;-43
2022/09/08 01:23:26;;;;;;;3.20;1.70;;;;;;;;;;110672;1247;32723;-43
2022/09/08 01:26:33;;;;;;;4.00;1.80;;;;;;;;;;110652;1250;33390;-41
2022/09/08 01:29:06;;;;;;;4.50;1.90;;;;;;;;;;110696;1246;34628;-45
2022/09/08 01:31:40;;;;;;;3.60;1.60;;;;;;;;;;110705;1252;33539;-43
2022/09/08 01:34:12;;;;;;;4.10;1.50;;;;;;;;;;110703;1252;32763;-44
2022/09/08 01:36:42;;;;;;;4.00;1.90;;;;;;;;;;110689;1244;32768;-41
2022/09/08 01:39:13;;;;;;;3.80;1.90;;;;;;;;;;110693;1244;32912;-40
2022/09/08 01:41:44;;;;;;;4.00;1.80;;;;;;;;;;110634;1252;33139;-41
2022/09/08 01:44:14;;;;;;;4.00;1.90;;;;;;;;;;110678;1247;32780;-43
2022/09/08 01:46:45;;;;;;;3.50;1.60;;;;;;;;;;110653;1252;33068;-41
2022/09/08 01:49:15;;;;;;;3.80;1.80;;;;;;;;;;110687;1246;32779;-42
2022/09/08 01:51:46;;;;;;;4.80;1.70;;;;;;;;;;110686;1248;32811;-41
2022/09/08 01:54:17;;;;;;;3.60;1.60;;;;;;;;;;110681;1244;33295;-40
2022/09/08 01:56:48;;;;;;;4.00;1.90;;;;;;;;;;110664;1252;33050;-43
2022/09/08 01:59:20;;;;;;;3.50;1.60;;;;;;;;;;110659;1253;32860;-42
2022/09/08 02:01:51;;;;;;;3.50;1.60;;;;;;;;;;110685;1245;32910;-42
2022/09/08 02:04:22;;;;;;;4.30;1.90;;;;;;;;;;110654;1244;33187;-41
2022/09/08 02:06:53;;;;;;;4.30;2.00;;;;;;;;;;110675;1246;32578;-44
2022/09/08 02:09:26;;;;;;;4.20;1.70;;;;;;;;;;110678;1245;33242;-41
2022/09/08 02:11:57;;;;;;;5.40;2.00;;;;;;;;;;110672;1245;32812;-43
2022/09/08 02:14:28;;;;;;;3.60;1.70;;;;;;;;;;110636;1244;34000;-42
2022/09/08 02:16:58;;;;;;;4.30;1.90;;;;;;;;;;110685;1252;33421;-43
2022/09/08 02:19:29;;;;;;;4.50;2.00;;;;;;;;;;110666;1245;32837;-43
2022/09/08 02:22:01;;;;;;;3.80;1.70;;;;;;;;;;110697;1244;33319;-42
2022/09/08 02:24:32;;;;;;;4.10;2.00;;;;;;;;;;110686;1244;32732;-42
2022/09/08 02:27:07;;;;;;;3.90;1.80;;;;;;;;;;110695;1246;33209;-40
2022/09/08 02:29:38;;;;;;;4.00;1.80;;;;;;;;;;110682;1244;33420;-44
2022/09/08 02:32:09;;;;;;;4.10;1.80;;;;;;;;;;110690;1244;33058;-42
2022/09/08 02:34:39;;;;;;;5.20;2.20;;;;;;;;;;110686;1244;33481;-42
2022/09/08 02:37:10;;;;;;;4.60;1.90;;;;;;;;;;110676;1252;33090;-40
2022/09/08 02:39:40;;;;;;;4.30;1.80;;;;;;;;;;110712;1244;32791;-40
2022/09/08 02:42:11;;;;;;;4.20;2.10;;;;;;;;;;110690;1244;32848;-41
2022/09/08 02:44:42;;;;;;;3.40;1.70;;;;;;;;;;110687;1244;33238;-39
2022/09/08 02:47:16;;;;;;;4.10;1.90;;;;;;;;;;110667;1247;32901;-41
2022/09/08 02:49:46;;;;;;;5.20;2.40;;;;;;;;;;110668;1250;32785;-41
2022/09/08 02:52:17;;;;;;;5.00;2.30;;;;;;;;;;110670;1245;32636;-40
2022/09/08 02:54:48;;;;;;;4.50;1.80;;;;;;;;;;110673;1246;32808;-42
2022/09/08 02:57:20;;;;;;;4.20;2.00;;;;;;;;;;110659;1245;33213;-39
2022/09/08 02:59:50;;;;;;;3.40;1.60;;;;;;;;;;110663;1253;33627;-40
2022/09/08 03:02:21;;;;;;;4.10;1.90;;;;;;;;;;110679;1245;32959;-39
2022/09/08 03:04:51;;;;;;;3.50;1.70;;;;;;;;;;110684;1245;33479;-42
2022/09/08 03:07:22;;;;;;;3.80;1.80;;;;;;;;;;110692;1244;33100;-41
2022/09/08 03:09:53;;;;;;;4.20;1.90;;;;;;;;;;110679;1244;32648;-40
2022/09/08 03:12:26;;;;;;;4.20;1.70;;;;;;;;;;110662;1252;33133;-39
2022/09/08 03:14:59;;;;;;;3.60;1.80;;;;;;;;;;110640;1251;32833;-41
2022/09/08 03:17:30;;;;;;;4.40;2.10;;;;;;;;;;110677;1252;32792;-40
2022/09/08 03:20:00;;;;;;;4.50;1.90;;;;;;;;;;110675;1247;32846;-39
2022/09/08 03:22:31;;;;;;;4.60;1.70;;;;;;;;;;110639;1244;32875;-40
2022/09/08 03:25:02;;;;;;;3.80;1.80;;;;;;;;;;110683;1244;33157;-40
2022/09/08 03:27:33;;;;;;;3.80;2.00;;;;;;;;;;110679;1244;33124;-40
2022/09/08 03:30:04;;;;;;;4.30;1.80;;;;;;;;;;110711;1244;32733;-39
2022/09/08 03:32:36;;;;;;;5.00;2.20;;;;;;;;;;110665;1244;32783;-39
2022/09/08 03:35:11;;;;;;;4.50;1.90;;;;;;;;;;110702;1244;33305;-39
2022/09/08 03:37:42;;;;;;;4.40;1.80;;;;;;;;;;110705;1244;34912;-40
2022/09/08 03:40:18;;;;;;;3.80;2.00;;;;;;;;;;110663;1252;33055;-41
2022/09/08 03:42:51;;;;;;;3.90;2.00;;;;;;;;;;110691;1251;33624;-40
2022/09/08 03:45:21;;;;;;;4.70;1.90;;;;;;;;;;110686;1245;33080;-41
2022/09/08 03:47:52;;;;;;;3.70;1.90;;;;;;;;;;110684;1247;32600;-41
2022/09/08 03:50:23;;;;;;;4.50;2.10;;;;;;;;;;110673;1252;33226;-40
2022/09/08 03:52:54;;;;;;;5.30;2.40;;;;;;;;;;110676;1252;32920;-40
2022/09/08 03:55:25;;;;;;;4.30;2.00;;;;;;;;;;110681;1252;33466;-40
2022/09/08 03:57:56;;;;;;;4.10;1.90;;;;;;;;;;110688;1246;33302;-40
2022/09/08 04:00:29;;;;;;;5.00;2.50;;;;;;;;;;110700;1246;33216;-40
2022/09/08 04:03:00;;;;;;;4.60;2.10;;;;;;;;;;110674;1245;33332;-41
2022/09/08 04:05:31;;;;;;;4.30;2.10;;;;;;;;;;110686;1244;33133;-41
2022/09/08 04:08:02;;;;;;;5.10;2.20;;;;;;;;;;110690;1244;32686;-40
2022/09/08 04:10:32;;;;;;;4.30;2.10;;;;;;;;;;110709;1253;33362;-42
2022/09/08 04:13:03;;;;;;;4.30;1.90;;;;;;;;;;110710;1244;33193;-41
2022/09/08 04:15:35;;;;;;;4.50;2.00;;;;;;;;;;110694;1244;32690;-43
2022/09/08 04:18:06;;;;;;;4.50;2.00;;;;;;;;;;110681;1252;33094;-40
2022/09/08 04:20:38;;;;;;;3.90;1.90;;;;;;;;;;110687;1246;33358;-40
2022/09/08 04:23:09;;;;;;;4.20;2.20;;;;;;;;;;110662;1244;33183;-41
2022/09/08 04:25:40;;;;;;;3.30;1.70;;;;;;;;;;110699;1244;33028;-39
2022/09/08 04:28:12;;;;;;;4.80;2.40;;;;;;;;;;110655;1252;33147;-40
2022/09/08 04:30:44;;;;;;;6.20;2.20;;;;;;;;;;110673;1244;33120;-39
2022/09/08 04:33:15;;;;;;;5.00;2.00;;;;;;;;;;110680;1252;33062;-42
2022/09/08 04:35:45;;;;;;;4.60;2.00;;;;;;;;;;110660;1252;34398;-41
2022/09/08 04:38:16;;;;;;;4.80;2.40;;;;;;;;;;110709;1248;33164;-41
2022/09/08 04:40:47;;;;;;;5.20;2.20;;;;;;;;;;110679;1247;33132;-41
2022/09/08 04:43:17;;;;;;;4.20;2.10;;;;;;;;;;110682;1251;32693;-41
2022/09/08 04:45:48;;;;;;;4.60;2.30;;;;;;;;;;110679;1246;33356;-39
2022/09/08 04:48:19;;;;;;;5.40;2.40;;;;;;;;;;110703;1244;33169;-40
2022/09/08 04:50:54;;;;;;;4.10;2.10;;;;;;;;;;110680;1244;33146;-39
2022/09/08 04:53:25;;;;;;;4.90;2.00;;;;;;;;;;110647;1252;33052;-40
2022/09/08 04:55:56;;;;;;;4.70;2.20;;;;;;;;;;110652;1252;33046;-41
2022/09/08 04:58:29;;;;;;;4.90;2.30;;;;;;;;;;110694;1252;33183;-39
2022/09/08 05:01:06;;;;;;;4.80;2.10;;;;;;;;;;110679;1247;33160;-39
2022/09/08 05:03:37;;;;;;;3.70;2.00;;;;;;;;;;110678;1252;33215;-41
2022/09/08 05:06:10;;;;;;;4.90;2.40;;;;;;;;;;110657;1244;32767;-41
2022/09/08 05:08:41;;;;;;;8.00;2.20;;;;;;;;;;110659;1247;32790;-39
2022/09/08 05:11:12;;;;;;;5.70;2.10;;;;;;;;;;110683;1244;33096;-42
2022/09/08 05:13:43;;;;;;;6.60;2.30;;;;;;;;;;110642;1246;33667;-44
2022/09/08 05:16:18;;;;;;;4.80;2.20;;;;;;;;;;110669;1245;32936;-41
2022/09/08 05:18:51;;;;;;;5.40;2.20;;;;;;;;;;110685;1244;32791;-40
2022/09/08 05:21:23;;;;;;;5.40;2.30;;;;;;;;;;110661;1252;33508;-41
2022/09/08 05:23:56;;;;;;;5.00;2.30;;;;;;;;;;110676;1245;32984;-40
2022/09/08 05:26:27;;;;;;;6.00;2.70;;;;;;;;;;110681;1244;32886;-40
2022/09/08 05:28:58;;;;;;;6.00;2.30;;;;;;;;;;110678;1252;33288;-40
2022/09/08 05:31:31;;;;;;;4.70;2.30;;;;;;;;;;110668;1244;32578;-39
2022/09/08 05:34:02;;;;;;;5.80;2.20;;;;;;;;;;110667;1252;32871;-41
2022/09/08 05:36:36;;;;;;;5.80;2.60;;;;;;;;;;110682;1244;32823;-40
2022/09/08 05:39:08;;;;;;;5.50;2.40;;;;;;;;;;110665;1244;32799;-41
2022/09/08 05:41:39;;;;;;;5.80;2.30;;;;;;;;;;110695;1244;32811;-40
2022/09/08 05:44:15;;;;;;;5.30;2.30;;;;;;;;;;110686;1253;32820;-42
2022/09/08 05:46:46;;;;;;;5.20;2.20;;;;;;;;;;110725;1244;33163;-40
2022/09/08 05:49:16;;;;;;;5.30;2.20;;;;;;;;;;110683;1244;33077;-41
2022/09/08 05:51:47;;;;;;;6.00;2.40;;;;;;;;;;110672;1247;33182;-41
2022/09/08 05:54:20;;;;;;;6.30;2.40;;;;;;;;;;110677;1244;33110;-41
2022/09/08 05:56:51;;;;;;;6.40;2.10;;;;;;;;;;110692;1244;33092;-41
2022/09/08 05:59:21;;;;;;;5.60;2.40;;;;;;;;;;110650;1250;32641;-40
2022/09/08 06:01:52;;;;;;;5.50;2.10;;;;;;;;;;110706;1245;34765;-42
2022/09/08 06:04:22;;;;;;;5.20;2.50;;;;;;;;;;110666;1245;33282;-40
2022/09/08 06:06:53;;;;;;;4.80;2.40;;;;;;;;;;110678;1244;33663;-39
2022/09/08 06:09:24;;;;;;;6.10;2.70;;;;;;;;;;110692;1247;32778;-40
2022/09/08 06:11:54;;;;;;;5.80;2.10;;;;;;;;;;110676;1244;33184;-40
2022/09/08 06:14:26;;;;;;;4.60;2.60;;;;;;;;;;110657;1247;33119;-41
2022/09/08 06:16:57;;;;;;;5.50;2.20;;;;;;;;;;110683;1252;33235;-41
2022/09/08 06:19:27;;;;;;;5.20;2.50;;;;;;;;;;110654;1244;32813;-42
2022/09/08 06:21:58;;;;;;;5.10;2.30;;;;;;;;;;110680;1253;32998;-42
2022/09/08 06:24:29;;;;;;;6.00;2.40;;;;;;;;;;110665;1244;33745;-42
2022/09/08 06:27:08;;;;;;;5.40;2.30;;;;;;;;;;110299;1246;522551;-41
2022/09/08 06:29:51;;;;;;;4.60;2.20;;;;;;;;;;110729;1246;34631;-41
2022/09/08 06:32:28;;;;;;;5.40;2.50;;;;;;;;;;110664;1244;32779;-41
2022/09/08 06:35:04;;;;;;;5.80;2.40;;;;;;;;;;110712;1247;33278;-41
2022/09/08 06:37:44;;;;;;;6.10;2.20;;;;;;;;;;110685;1245;33315;-41
2022/09/08 06:40:20;;;;;;;5.70;2.50;;;;;;;;;;110704;1252;33242;-42
2022/09/08 06:43:02;;;;;;;6.00;2.60;;;;;;;;;;110656;1244;32833;-42
2022/09/08 06:45:38;;;;;;;5.30;2.50;;;;;;;;;;110692;1244;32846;-41
2022/09/08 06:48:25;;;;;;;7.20;2.60;;;;;;;;;;110641;1252;33031;-44
2022/09/08 06:51:08;;;;;;;4.90;2.50;;;;;;;;;;110650;1251;33228;-42
2022/09/08 06:53:45;;;;;;;6.30;2.30;;;;;;;;;;110664;1244;33151;-41
2022/09/08 06:56:26;;;;;;;4.40;2.10;;;;;;;;;;110677;1244;34819;-41
2022/09/08 06:59:01;;;;;;;4.90;2.30;;;;;;;;;;110663;1244;32788;-41
2022/09/08 07:01:39;;;;;;;5.60;2.10;;;;;;;;;;110666;1244;33263;-42
2022/09/08 07:04:22;;;;;;;5.20;2.30;;;;;;;;;;110668;1252;34733;-43
2022/09/08 07:07:01;;;;;;;5.30;2.20;;;;;;;;;;110698;1252;32896;-41
2022/09/08 07:09:41;;;;;;;5.40;2.20;;;;;;;;;;110697;1244;34960;-43
2022/09/08 07:12:21;;;;;;;7.80;2.30;;;;;;;;;;110638;1244;32762;-40
2022/09/08 07:15:22;;;;;;;6.40;2.70;;;;;;;;;;110656;1252;34343;-40
2022/09/08 07:18:02;;;;;;;4.40;2.10;;;;;;;;;;110466;1253;33115;-44
2022/09/08 07:20:33;;;;;;;4.00;2.20;;;;;;;;;;110647;1244;33343;-42
2022/09/08 07:23:08;;;;;;;5.00;2.20;;;;;;;;;;110688;1244;33422;-45
2022/09/08 07:25:47;;;;;;;4.80;2.30;;;;;;;;;;110718;1244;33434;-42
2022/09/08 07:28:22;;;;;;;5.80;3.00;;;;;;;;;;110602;1253;33100;-46
2022/09/08 07:30:57;;;;;;;5.80;2.50;;;;;;;;;;110584;1253;33394;-44
2022/09/08 07:33:35;;;;;;;7.10;2.90;;;;;;;;;;110648;1251;33363;-45
2022/09/08 07:36:14;;;;;;;7.10;2.70;;;;;;;;;;110620;1247;32897;-48
2022/09/08 07:38:51;;;;;;;9.00;2.70;;;;;;;;;;110547;1247;33171;-46
2022/09/08 07:41:29;;;;;;;8.80;2.90;;;;;;;;;;110570;1253;33205;-47
2022/09/08 07:44:06;;;;;;;10.50;3.20;;;;;;;;;;110620;1244;32832;-45
2022/09/08 07:46:51;;;;;;;6.70;2.60;;;;;;;;;;110650;1244;33377;-48
2022/09/08 07:49:28;;;;;;;5.90;2.60;;;;;;;;;;110666;1246;33308;-39
2022/09/08 07:52:05;;;;;;;6.90;2.90;;;;;;;;;;110682;1247;33186;-41
2022/09/08 07:54:53;;;;;;;7.70;2.60;;;;;;;;;;110677;1244;32770;-43
2022/09/08 07:57:36;;;;;;;7.00;2.70;;;;;;;;;;110664;1252;33180;-42
2022/09/08 08:00:18;;;;;;;5.40;2.10;;;;;;;;;;110620;1246;32715;-45
2022/09/08 08:03:24;;;;;;;6.50;2.70;;;;;;;;;;110601;1247;33238;-43
2022/09/08 08:06:05;;;;;;;5.90;2.60;;;;;;;;;;110288;1251;33398;-36
2022/09/08 08:08:46;;;;;;;7.00;2.60;;;;;;;;;;110528;1253;34605;-35
2022/09/08 08:11:21;;;;;;;6.20;2.90;;;;;;;;;;110629;1252;34678;-36
2022/09/08 08:14:08;;;;;;;6.80;2.30;;;;;;;;;;110682;1245;32624;-37
2022/09/08 08:16:50;;;;;;;7.10;2.60;;;;;;;;;;110685;1246;32979;-42
2022/09/08 08:19:32;;;;;;;5.40;2.60;;;;;;;;;;110652;1247;32859;-43
2022/09/08 08:22:14;;;;;;;5.30;2.30;;;;;;;;;;110676;1247;33109;-43
2022/09/08 08:24:54;;;;;;;6.90;2.80;;;;;;;;;;110657;1244;33075;-43
2022/09/08 08:27:34;;;;;;;5.80;2.20;;;;;;;;;;110689;1244;33064;-36
2022/09/08 08:30:21;;;;;;;5.50;2.70;;;;;;;;;;110697;1247;33004;-36
2022/09/08 08:32:57;;;;;;;5.00;2.30;;;;;;;;;;110664;1245;32781;-36
2022/09/08 08:35:34;;;;;;;6.30;2.50;;;;;;;;;;110665;1244;32862;-36
2022/09/08 08:38:08;;;;;;;4.90;2.00;;;;;;;;;;110655;1244;33397;-36
2022/09/08 08:40:53;;;;;;;4.90;2.20;;;;;;;;;;110679;1244;33958;-36
2022/09/08 08:43:46;;;;;;;5.30;2.20;;;;;;;;;;110643;1244;33008;-36
2022/09/08 08:46:41;;;;;;;5.10;2.50;;;;;;;;;;110686;1244;33296;-36
2022/09/08 08:49:42;;;;;;;6.20;2.20;;;;;;;;;;110659;1252;33523;-36
2022/09/08 08:52:28;;;;;;;5.40;2.10;;;;;;;;;;110646;1245;33327;-36
2022/09/08 08:55:13;;;;;;;5.70;2.20;;;;;;;;;;110650;1244;32644;-36
2022/09/08 08:57:56;;;;;;;4.10;1.90;;;;;;;;;;110669;1246;33065;-36
2022/09/08 09:00:37;;;;;;;5.70;2.20;;;;;;;;;;110668;1244;32937;-36
2022/09/08 09:03:35;;;;;;;5.60;2.20;;;;;;;;;;110692;1252;34462;-36
2022/09/08 09:06:18;;;;;;;5.00;2.30;;;;;;;;;;110680;1252;33058;-36
2022/09/08 09:09:09;;;;;;;4.70;2.40;;;;;;;;;;110666;1247;34502;-36
2022/09/08 09:11:52;;;;;;;5.30;1.80;;;;;;;;;;110679;1252;34112;-36
2022/09/08 09:14:35;;;;;;;5.80;2.20;;;;;;;;;;110669;1250;32785;-36
2022/09/08 09:17:19;;;;;;;4.20;2.00;;;;;;;;;;110687;1252;32789;-36
2022/09/08 09:20:22;;;;;;;4.60;1.60;;;;;;;;;;110701;1246;32680;-36
2022/09/08 09:22:56;;;;;;;4.70;1.90;;;;;;;;;;110687;1246;33067;-36
2022/09/08 09:25:34;;;;;;;4.70;2.10;;;;;;;;;;110684;1244;33288;-36
2022/09/08 09:28:23;;;;;;;4.70;2.30;;;;;;;;;;110684;1244;33010;-36
2022/09/08 09:31:15;;;;;;;4.50;1.90;;;;;;;;;;110665;1245;32846;-36
2022/09/08 09:34:07;;;;;;;5.30;1.80;;;;;;;;;;110678;1244;34734;-36
2022/09/08 09:36:59;;;;;;;4.90;1.90;;;;;;;;;;110682;1244;32990;-36
2022/09/08 09:39:54;;;;;;;4.00;1.80;;;;;;;;;;110654;1247;33062;-38
2022/09/08 09:42:37;;;;;;;4.10;1.90;;;;;;;;;;110698;1245;32963;-38
2022/09/08 09:45:31;;;;;;;4.70;2.30;;;;;;;;;;110693;1251;32705;-38
2022/09/08 09:48:25;;;;;;;4.00;1.90;;;;;;;;;;110678;1251;32999;-38
2022/09/08 09:51:04;;;;;;;4.30;2.10;;;;;;;;;;110690;1244;33161;-38
2022/09/08 09:53:56;;;;;;;4.40;2.10;;;;;;;;;;110680;1244;33438;-38
2022/09/08 09:56:57;;;;;;;4.50;1.90;;;;;;;;;;110660;1252;33418;-37
2022/09/08 09:59:54;;;;;;;4.10;1.90;;;;;;;;;;110673;1245;33135;-38
2022/09/08 10:02:45;;;;;;;4.00;2.10;;;;;;;;;;110659;1251;32837;-37
2022/09/08 10:05:51;;;;;;;4.90;1.90;;;;;;;;;;110656;1246;33276;-37
2022/09/08 10:08:58;;;;;;;4.60;2.10;;;;;;;;;;110679;1244;33078;-38
2022/09/08 10:12:01;;;;;;;3.80;2.00;;;;;;;;;;110658;1251;33196;-38
2022/09/08 10:15:04;;;;;;;4.60;2.30;;;;;;;;;;110657;1252;33417;-38
2022/09/08 10:17:57;;;;;;;5.20;2.10;;;;;;;;;;110658;1244;32795;-38
2022/09/08 10:20:52;;;;;;;5.30;2.10;;;;;;;;;;110691;1252;33310;-38
2022/09/08 10:23:58;;;;;;;4.30;1.80;;;;;;;;;;110667;1244;33754;-38
2022/09/08 10:26:49;;;;;;;4.40;2.10;;;;;;;;;;110546;1252;33081;-38
2022/09/08 10:29:53;;;;;;;4.10;1.70;;;;;;;;;;110694;1252;33072;-38
2022/09/08 10:32:49;;;;;;;5.40;2.00;;;;;;;;;;110480;1253;33695;-38
2022/09/08 10:35:47;;;;;;;4.00;1.90;;;;;;;;;;110675;1247;33208;-38
2022/09/08 10:38:33;;;;;;;4.50;1.90;;;;;;;;;;110473;1247;32855;-38
2022/09/08 10:41:50;;;;;;;3.70;1.80;;;;;;;;;;110667;1244;33017;-38
2022/09/08 10:44:41;;;;;;;4.40;2.00;;;;;;;;;;110677;1247;33108;-38
2022/09/08 10:47:51;;;;;;;5.00;2.20;;;;;;;;;;110676;1247;32693;-37
2022/09/08 10:50:25;;;;;;;4.70;2.00;;;;;;;;;;110685;1244;32852;-37
2022/09/08 10:53:16;;;;;;;4.00;1.90;;;;;;;;;;110659;1247;33241;-38
2022/09/08 10:56:05;;;;;;;4.40;2.30;;;;;;;;;;110643;1250;34606;-39
2022/09/08 10:59:01;;;;;;;4.30;1.90;;;;;;;;;;110653;1252;33122;-40
2022/09/08 11:01:56;;;;;;;4.60;1.90;;;;;;;;;;110654;1252;33194;-38
2022/09/08 11:05:12;;;;;;;4.50;1.90;;;;;;;;;;110697;1252;33231;-38
2022/09/08 11:08:17;;;;;;;4.30;1.70;;;;;;;;;;110674;1244;32902;-38
2022/09/08 11:11:05;;;;;;;4.10;2.00;;;;;;;;;;110587;1244;32862;-38
2022/09/08 11:13:43;;;;;;;5.00;2.20;;;;;;;;;;110669;1252;34632;-38
2022/09/08 11:16:29;;;;;;;5.10;2.20;;;;;;;;;;110668;1253;33409;-37
2022/09/08 11:19:22;;;;;;;3.80;1.80;;;;;;;;;;110657;1246;32805;-38
2022/09/08 11:22:11;;;;;;;4.50;1.80;;;;;;;;;;110632;1247;33157;-39
2022/09/08 11:24:54;;;;;;;4.70;1.80;;;;;;;;;;110634;1244;33132;-38
2022/09/08 11:27:35;;;;;;;3.40;1.60;;;;;;;;;;110662;1245;33240;-38
2022/09/08 11:30:18;;;;;;;4.70;2.30;;;;;;;;;;110650;1252;32893;-38
2022/09/08 11:33:10;;;;;;;4.40;1.70;;;;;;;;;;110702;1252;33068;-38
2022/09/08 11:35:53;;;;;;;3.90;1.90;;;;;;;;;;110687;1245;33004;-38
2022/09/08 11:38:44;;;;;;;4.50;1.90;;;;;;;;;;110646;1247;33463;-38
2022/09/08 11:41:36;;;;;;;4.90;2.10;;;;;;;;;;110647;1252;32926;-38
2022/09/08 11:44:23;;;;;;;3.80;1.60;;;;;;;;;;110708;1244;34422;-38
2022/09/08 11:47:08;;;;;;;5.10;1.90;;;;;;;;;;110653;1252;33271;-38
2022/09/08 11:50:19;;;;;;;5.10;1.90;;;;;;;;;;110672;1248;32869;-38
2022/09/08 11:53:12;;;;;;;4.80;1.80;;;;;;;;;;110627;1251;33309;-38
2022/09/08 11:56:09;;;;;;;4.10;1.70;;;;;;;;;;110695;1252;33430;-38
2022/09/08 11:58:54;;;;;;;4.50;1.90;;;;;;;;;;110682;1253;33816;-38
2022/09/08 12:01:40;;;;;;;5.20;2.40;;;;;;;;;;110685;1244;33130;-39
2022/09/08 12:04:27;;;;;;;4.40;1.60;;;;;;;;;;110683;1244;32894;-38
2022/09/08 12:07:16;;;;;;;3.90;2.10;;;;;;;;;;110655;1245;33351;-38
2022/09/08 12:10:00;;;;;;;4.60;1.70;;;;;;;;;;110689;1244;33193;-38
2022/09/08 12:12:42;;;;;;;4.20;1.60;;;;;;;;;;110672;1244;32775;-38
2022/09/08 12:15:27;;;;;;;3.70;1.80;;;;;;;;;;110674;1245;32735;-38
2022/09/08 12:18:11;;;;;;;4.00;1.70;;;;;;;;;;110695;1247;33183;-38
2022/09/08 12:20:54;;;;;;;3.40;1.50;;;;;;;;;;110660;1245;32703;-38
2022/09/08 12:23:36;;;;;;;4.50;1.60;;;;;;;;;;110665;1244;33918;-38
2022/09/08 12:26:22;;;;;;;3.40;1.50;;;;;;;;;;110704;1253;33075;-38
2022/09/08 12:29:14;;;;;;;3.40;1.50;;;;;;;;;;110697;1246;33011;-38
2022/09/08 12:32:02;;;;;;;3.70;1.70;;;;;;;;;;110675;1244;33103;-40
2022/09/08 12:35:00;;;;;;;3.70;1.40;;;;;;;;;;110683;1244;33195;-38
2022/09/08 12:37:43;;;;;;;4.20;1.70;;;;;;;;;;110659;1252;33045;-37
2022/09/08 12:40:29;;;;;;;4.30;1.30;;;;;;;;;;110691;1253;33178;-38
2022/09/08 12:43:14;;;;;;;3.50;1.40;;;;;;;;;;110692;1247;32785;-38
2022/09/08 12:46:12;;;;;;;3.10;1.30;;;;;;;;;;110684;1246;32860;-37
2022/09/08 12:49:01;;;;;;;3.60;1.70;;;;;;;;;;110723;1250;32763;-38
2022/09/08 12:51:34;;;;;;;3.50;1.50;;;;;;;;;;110699;1247;33160;-38
2022/09/08 12:54:23;;;;;;;5.50;1.70;;;;;;;;;;110692;1252;33502;-38
2022/09/08 12:57:17;;;;;;;4.40;1.50;;;;;;;;;;110683;1244;33001;-38
2022/09/08 13:00:01;;;;;;;4.50;1.50;;;;;;;;;;110729;1247;33583;-40
2022/09/08 13:02:50;;;;;;;3.60;1.40;;;;;;;;;;110664;1247;33497;-38
2022/09/08 13:05:40;;;;;;;3.60;1.50;;;;;;;;;;110636;1244;34324;-37
2022/09/08 13:08:27;;;;;;;3.50;1.30;;;;;;;;;;110682;1251;33818;-39
2022/09/08 13:11:07;;;;;;;3.40;1.30;;;;;;;;;;110651;1244;33218;-37
2022/09/08 13:13:43;;;;;;;3.70;1.40;;;;;;;;;;110694;1250;33260;-36
2022/09/08 13:16:31;;;;;;;4.80;1.70;;;;;;;;;;110658;1247;33608;-37
2022/09/08 13:19:20;;;;;;;4.30;1.60;;;;;;;;;;110659;1247;33609;-42
2022/09/08 13:22:25;;;;;;;4.30;1.40;;;;;;;;;;110589;1253;33572;-37
2022/09/08 13:25:06;;;;;;;4.00;1.60;;;;;;;;;;110697;1253;33086;-40
2022/09/08 13:27:52;;;;;;;3.40;1.30;;;;;;;;;;110671;1244;33502;-38
2022/09/08 13:30:29;;;;;;;4.20;1.60;;;;;;;;;;110676;1245;33118;-39
2022/09/08 13:33:23;;;;;;;3.40;1.30;;;;;;;;;;110652;1247;33592;-40
2022/09/08 13:36:26;;;;;;;5.10;1.50;;;;;;;;;;110638;1251;33701;-40
2022/09/08 13:39:17;;;;;;;5.40;1.50;;;;;;;;;;110629;1251;33141;-41
2022/09/08 13:42:17;;;;;;;5.00;1.40;;;;;;;;;;110652;1244;33463;-49
2022/09/08 13:44:59;;;;;;;4.80;1.50;;;;;;;;;;110588;1245;33563;-40
2022/09/08 13:47:51;;;;;;;4.20;1.30;;;;;;;;;;109278;1253;33951;-37
2022/09/08 13:52:42;;;;;;;4.80;1.40;;;;;;;;;;101426;1295;5197895;-38
2022/09/08 13:55:50;;;;;;;5.50;1.50;;;;;;;;;;108598;1264;33234;-39
2022/09/08 13:58:39;;;;;;;3.50;1.40;;;;;;;;;;108653;1263;34521;-40
2022/09/08 14:01:32;;;;;;;3.50;1.50;;;;;;;;;;108563;1264;33162;-40
2022/09/08 14:04:08;;;;;;;5.00;1.60;;;;;;;;;;108489;1270;35552;-39
2022/09/08 14:06:44;;;;;;;5.00;1.40;;;;;;;;;;108366;1264;437251;-39
2022/09/08 14:09:22;;;;;;;4.30;1.60;;;;;;;;;;108648;1270;33882;-39
2022/09/08 14:12:06;;;;;;;4.40;1.40;;;;;;;;;;108674;1264;33047;-39
2022/09/08 14:15:04;;;;;;;3.90;1.50;;;;;;;;;;109024;1268;38106;-39
2022/09/08 14:17:57;;;;;;;3.70;1.50;;;;;;;;;;109094;1268;32875;-39
2022/09/08 14:20:37;;;;;;;3.70;1.30;;;;;;;;;;109070;1261;33169;-40
2022/09/08 14:23:28;;;;;;;3.90;1.30;;;;;;;;;;108925;1267;33194;-39
2022/09/08 14:26:39;;;;;;;3.30;1.30;;;;;;;;;;108873;1264;33218;-39
2022/09/08 14:29:27;;;;;;;3.00;1.40;;;;;;;;;;108855;1262;33130;-39
2022/09/08 14:32:13;;;;;;;3.30;1.20;;;;;;;;;;109076;1261;33440;-39
2022/09/08 14:35:05;;;;;;;4.30;1.40;;;;;;;;;;109114;1260;34695;-39
2022/09/08 14:37:50;;;;;;;4.00;1.50;;;;;;;;;;109150;1267;33329;-39
2022/09/08 14:40:24;;;;;;;3.30;1.30;;;;;;;;;;109167;1267;33201;-39
2022/09/08 14:43:19;;;;;;;4.10;1.50;;;;;;;;;;109109;1261;33618;-39
2022/09/08 14:45:55;;;;;;;3.10;1.40;;;;;;;;;;109113;1268;33387;-39
2022/09/08 14:48:33;;;;;;;3.30;1.40;;;;;;;;;;109059;1260;33488;-39
2022/09/08 14:51:20;;;;;;;5.20;1.50;;;;;;;;;;109137;1260;33523;-39
2022/09/08 14:54:21;;;;;;;3.30;1.40;;;;;;;;;;109149;1259;34616;-39
2022/09/08 14:57:09;;;;;;;3.00;1.30;;;;;;;;;;109150;1267;33301;-38
2022/09/08 15:00:00;;;;;;;3.10;1.20;;;;;;;;;;109115;1267;33371;-38
2022/09/08 15:02:31;;;;;;;;;;;;;;;;;;109694;1256;33014;-38
2022/09/08 15:05:20;;;;;;;4.20;1.50;;;;;;;;;;109670;1257;33318;-38
2022/09/08 15:07:57;;;;;;;5.00;1.40;;;;;;;;;;109663;1257;34121;-38
2022/09/08 15:10:36;;;;;;;3.60;1.50;;;;;;;;;;109699;1257;33635;-38
2022/09/08 15:13:17;;;;;;;3.80;1.30;;;;;;;;;;109679;1259;33720;-40
2022/09/08 15:15:47;;;;;;;2.80;1.20;;;;;;;;;;109769;1256;33363;-39
2022/09/08 15:18:37;;;;;;;4.40;1.60;;;;;;;;;;109690;1257;33677;-39
2022/09/08 15:21:21;;;;;;;3.70;1.30;;;;;;;;;;109645;1260;33685;-39
2022/09/08 15:23:51;;;;;;;;;;;;;;;;;;109662;1257;35138;-39
2022/09/08 15:26:47;;;;;;;4.60;1.30;;;;;;;;;;109690;1257;33648;-40
2022/09/08 15:29:44;;;;;;;3.80;1.40;;;;;;;;;;109724;1258;33209;-40
2022/09/08 15:32:54;;;;;;;3.70;1.60;;;;;;;;;;109645;1265;33251;-39
2022/09/08 15:35:37;;;;;;;3.30;1.50;;;;;;;;;;109509;1257;34016;-40
2022/09/08 15:38:28;;;;;;;4.10;1.50;;;;;;;;;;109627;1258;33025;-39
2022/09/08 15:41:19;;;;;;;3.90;1.50;;;;;;;;;;109234;1264;33132;-39
2022/09/08 15:44:05;;;;;;;3.50;1.60;;;;;;;;;;109657;1258;33196;-40
2022/09/08 15:46:44;;;;;;;3.60;1.40;;;;;;;;;;109482;1257;39169;-40
2022/09/08 15:49:26;;;;;;;3.20;1.20;;;;;;;;;;109351;1257;33995;-40
2022/09/08 15:52:15;;;;;;;3.60;1.30;;;;;;;;;;109359;1264;32959;-40
2022/09/08 15:54:54;;;;;;;3.10;1.30;;;;;;;;;;109340;1259;33211;-40
2022/09/08 15:57:30;;;;;;;3.90;1.70;;;;;;;;;;109629;1261;33301;-39